createdAt,value
2023-01-19T00:00:04.441Z,99513.03
2023-01-19T00:01:08.706Z,99508.9
2023-01-19T00:02:12.925Z,99515.42
2023-01-19T00:03:17.439Z,99514.32
2023-01-19T00:04:21.687Z,99519.44
2023-01-19T00:05:28.189Z,99520.05
2023-01-19T00:06:32.682Z,99526.54
2023-01-19T00:07:37.038Z,99521.56
2023-01-19T00:08:41.311Z,99521.35
2023-01-19T00:09:45.531Z,99525.48
2023-01-19T00:10:49.766Z,99526.42
2023-01-19T00:11:54.001Z,99528.54
2023-01-19T00:12:59.152Z,99525.25
2023-01-19T00:14:04.260Z,99527.41
2023-01-19T00:15:08.496Z,99529.64
2023-01-19T00:16:12.888Z,99530.89
2023-01-19T00:17:17.175Z,99531.54
2023-01-19T00:18:21.389Z,99540.59
2023-01-19T00:19:25.606Z,99538.44
2023-01-19T00:20:30.062Z,99536.45
2023-01-19T00:21:34.291Z,99541.71
2023-01-19T00:22:38.560Z,99544.25
2023-01-19T00:23:42.787Z,99537.28
2023-01-19T00:24:47.012Z,99543.57
2023-01-19T00:25:51.251Z,99553.55
2023-01-19T00:26:55.479Z,99549.69
2023-01-19T00:28:02.334Z,99546.08
2023-01-19T00:29:06.610Z,99550.74
2023-01-19T00:30:10.849Z,99558.61
2023-01-19T00:31:15.247Z,99556.94
2023-01-19T00:32:19.610Z,99557.11
2023-01-19T00:33:23.834Z,99564.25
2023-01-19T00:34:28.078Z,99560.64
2023-01-19T00:35:34.850Z,99565.59
2023-01-19T00:36:39.233Z,99563.66
2023-01-19T00:37:43.444Z,99570.94
2023-01-19T00:38:47.685Z,99569.36
2023-01-19T00:39:51.923Z,99575.13
2023-01-19T00:40:56.141Z,99571
2023-01-19T00:42:00.480Z,99571.86
2023-01-19T00:43:04.815Z,99574.36
2023-01-19T00:44:09.049Z,99568.6
2023-01-19T00:45:13.328Z,99574.77
2023-01-19T00:46:17.599Z,99570.11
2023-01-19T00:47:21.826Z,99574.91
2023-01-19T00:48:26.055Z,99577.17
2023-01-19T00:49:30.306Z,99574.5
2023-01-19T00:50:34.546Z,99568.81
2023-01-19T00:51:38.810Z,99573.68
2023-01-19T00:52:43.061Z,99574.7
2023-01-19T00:53:47.307Z,99571.65
2023-01-19T00:54:51.551Z,99573.11
2023-01-19T00:55:55.786Z,99574.53
2023-01-19T00:57:00.038Z,99572.14
2023-01-19T00:58:04.289Z,99568.91
2023-01-19T00:59:08.548Z,99573.56
2023-01-19T01:00:12.831Z,99576.93
2023-01-19T01:01:17.280Z,99581.92
2023-01-19T01:02:22.063Z,99584.28
2023-01-19T01:03:26.858Z,99584.15
2023-01-19T01:04:31.515Z,99588.81
2023-01-19T01:05:35.746Z,99589.5
2023-01-19T01:06:39.973Z,99589.59
2023-01-19T01:07:44.205Z,99591.62
2023-01-19T01:08:48.682Z,99600.41
2023-01-19T01:09:52.980Z,99599.48
2023-01-19T01:10:57.224Z,99599.89
2023-01-19T01:12:01.452Z,99602.33
2023-01-19T01:13:26.310Z,99612.71
2023-01-19T01:14:32.083Z,99603.98
2023-01-19T01:15:36.411Z,99597.82
2023-01-19T01:16:40.965Z,99602.65
2023-01-19T01:17:45.252Z,99610.27
2023-01-19T01:18:49.483Z,99602.2
2023-01-19T01:19:53.713Z,99604.47
2023-01-19T01:20:58.018Z,99604.36
2023-01-19T01:22:02.250Z,99603.58
2023-01-19T01:23:06.460Z,99605.16
2023-01-19T01:24:10.712Z,99612.27
2023-01-19T01:25:14.928Z,99614.53
2023-01-19T01:26:19.147Z,99610.27
2023-01-19T01:27:23.368Z,99620.29
2023-01-19T01:28:27.608Z,99619.84
2023-01-19T01:29:31.879Z,99625
2023-01-19T01:30:36.112Z,99629.91
2023-01-19T01:31:40.474Z,99632.26
2023-01-19T01:32:44.784Z,99634.33
2023-01-19T01:33:49.113Z,99642.44
2023-01-19T01:34:53.386Z,99635.34
2023-01-19T01:35:57.652Z,99642.52
2023-01-19T01:37:01.908Z,99640.13
2023-01-19T01:38:06.147Z,99638.98
2023-01-19T01:39:10.430Z,99634.05
2023-01-19T01:40:14.669Z,99634.41
2023-01-19T01:41:22.819Z,99630.67
2023-01-19T01:42:29.934Z,99632.38
2023-01-19T01:43:34.161Z,99624.84
2023-01-19T01:44:38.464Z,99631.16
2023-01-19T01:45:42.768Z,99634.41
2023-01-19T01:46:47.061Z,99623.25
2023-01-19T01:47:51.297Z,99622.23
2023-01-19T01:48:55.566Z,99625.41
2023-01-19T01:49:59.819Z,99631.12
2023-01-19T01:51:04.038Z,99624.15
2023-01-19T01:52:08.263Z,99618.47
2023-01-19T01:53:13.008Z,99617.58
2023-01-19T01:54:17.270Z,99624.95
2023-01-19T01:55:21.544Z,99617.94
2023-01-19T01:56:25.768Z,99621.67
2023-01-19T01:57:29.987Z,99627.47
2023-01-19T01:58:34.208Z,99628.56
2023-01-19T01:59:38.449Z,99640.13
2023-01-19T02:00:42.852Z,99634.81
2023-01-19T02:01:51.866Z,99634.32
2023-01-19T02:02:56.489Z,99639.23
2023-01-19T02:04:00.934Z,99641.91
2023-01-19T02:05:05.269Z,99646.94
2023-01-19T02:06:09.550Z,99646.2
2023-01-19T02:07:13.917Z,99641.87
2023-01-19T02:08:18.191Z,99644.55
2023-01-19T02:09:22.423Z,99646.62
2023-01-19T02:10:26.637Z,99648.8
2023-01-19T02:11:30.862Z,99643.04
2023-01-19T02:12:35.116Z,99652.54
2023-01-19T02:13:39.326Z,99651.48
2023-01-19T02:14:43.585Z,99656.51
2023-01-19T02:15:47.798Z,99657.2
2023-01-19T02:16:54.380Z,99666.16
2023-01-19T02:17:58.663Z,99670.5
2023-01-19T02:19:02.930Z,99662.88
2023-01-19T02:20:07.155Z,99672.24
2023-01-19T02:21:14.538Z,99678.41
2023-01-19T02:22:18.794Z,99678.33
2023-01-19T02:23:23.026Z,99677.88
2023-01-19T02:24:27.337Z,99676.7
2023-01-19T02:25:31.546Z,99677.83
2023-01-19T02:26:35.803Z,99675.61
2023-01-19T02:27:40.051Z,99668.59
2023-01-19T02:28:44.272Z,99672.84
2023-01-19T02:29:48.597Z,99669.16
2023-01-19T02:30:53.017Z,99678.73
2023-01-19T02:31:57.370Z,99669.97
2023-01-19T02:33:02.455Z,99674.39
2023-01-19T02:34:07.203Z,99666.61
2023-01-19T02:35:11.439Z,99668.68
2023-01-19T02:36:15.842Z,99658.3
2023-01-19T02:37:20.077Z,99658.41
2023-01-19T02:38:24.289Z,99658.58
2023-01-19T02:39:28.534Z,99665.8
2023-01-19T02:40:32.814Z,99656.83
2023-01-19T02:41:37.155Z,99663.11
2023-01-19T02:42:41.397Z,99658.61
2023-01-19T02:43:45.684Z,99660.8
2023-01-19T02:44:49.933Z,99657.93
2023-01-19T02:45:54.166Z,99656.18
2023-01-19T02:46:58.453Z,99661.45
2023-01-19T02:48:02.726Z,99662.27
2023-01-19T02:49:06.949Z,99660.28
2023-01-19T02:50:11.332Z,99657.55
2023-01-19T02:51:15.523Z,99669.27
2023-01-19T02:52:19.839Z,99662.62
2023-01-19T02:53:24.076Z,99660.88
2023-01-19T02:54:28.307Z,99671.95
2023-01-19T02:55:32.792Z,99664.98
2023-01-19T02:56:37.014Z,99676.02
2023-01-19T02:57:41.233Z,99676.02
2023-01-19T02:58:45.445Z,99678.48
2023-01-19T02:59:49.677Z,99678.8
2023-01-19T03:00:54.016Z,99679.21
2023-01-19T03:01:58.393Z,99680.68
2023-01-19T03:03:04.094Z,99682.98
2023-01-19T03:04:08.681Z,99689.07
2023-01-19T03:05:13.175Z,99678.89
2023-01-19T03:06:17.411Z,99677.55
2023-01-19T03:07:21.629Z,99681.48
2023-01-19T03:08:25.904Z,99681.36
2023-01-19T03:09:30.139Z,99676.86
2023-01-19T03:10:34.409Z,99675.28
2023-01-19T03:11:38.600Z,99677.35
2023-01-19T03:12:42.826Z,99679.73
2023-01-19T03:13:47.204Z,99681.59
2023-01-19T03:14:51.421Z,99684.44
2023-01-19T03:15:55.837Z,99678.92
2023-01-19T03:17:00.272Z,99679.52
2023-01-19T03:18:04.502Z,99673.84
2023-01-19T03:19:08.781Z,99679.41
2023-01-19T03:20:13.089Z,99679.52
2023-01-19T03:21:17.447Z,99682.97
2023-01-19T03:22:21.678Z,99681.35
2023-01-19T03:23:25.963Z,99679.69
2023-01-19T03:24:32.875Z,99686.02
2023-01-19T03:25:38.103Z,99679.52
2023-01-19T03:26:42.343Z,99683.05
2023-01-19T03:27:46.765Z,99689.79
2023-01-19T03:28:51.133Z,99694.81
2023-01-19T03:29:55.348Z,99694.48
2023-01-19T03:30:59.712Z,99691.59
2023-01-19T03:32:04.023Z,99695.37
2023-01-19T03:33:08.247Z,99699.44
2023-01-19T03:34:12.813Z,99698.98
2023-01-19T03:35:17.024Z,99698.98
2023-01-19T03:36:21.225Z,99699.88
2023-01-19T03:37:25.504Z,99700.2
2023-01-19T03:38:29.728Z,99695.37
2023-01-19T03:39:33.967Z,99697.91
2023-01-19T03:40:38.169Z,99691.22
2023-01-19T03:41:42.383Z,99695.97
2023-01-19T03:42:46.602Z,99697.31
2023-01-19T03:43:50.823Z,99697.47
2023-01-19T03:44:55.041Z,99691.62
2023-01-19T03:45:59.362Z,99698.16
2023-01-19T03:47:03.685Z,99692.72
2023-01-19T03:48:07.881Z,99697.8
2023-01-19T03:49:12.128Z,99697.67
2023-01-19T03:50:16.333Z,99699.94
2023-01-19T03:51:20.551Z,99705.05
2023-01-19T03:52:24.821Z,99705.37
2023-01-19T03:53:29.041Z,99699.69
2023-01-19T03:54:33.459Z,99702.01
2023-01-19T03:55:37.698Z,99704.95
2023-01-19T03:56:41.984Z,99711.48
2023-01-19T03:57:46.250Z,99706.87
2023-01-19T03:58:50.475Z,99708.05
2023-01-19T03:59:55.731Z,99711.05
2023-01-19T04:01:02.375Z,99714.33
2023-01-19T04:02:09.293Z,99716.1
2023-01-19T04:03:13.743Z,99717.27
2023-01-19T04:04:17.996Z,99717.03
2023-01-19T04:05:22.255Z,99712.77
2023-01-19T04:06:26.511Z,99712.77
2023-01-19T04:07:30.743Z,99712.85
2023-01-19T04:08:35.009Z,99715.17
2023-01-19T04:09:39.263Z,99713.7
2023-01-19T04:10:43.502Z,99711.59
2023-01-19T04:11:47.706Z,99709.08
2023-01-19T04:12:51.974Z,99707.83
2023-01-19T04:13:56.260Z,99705.67
2023-01-19T04:15:00.510Z,99711.02
2023-01-19T04:16:04.856Z,99705.31
2023-01-19T04:17:09.170Z,99702.72
2023-01-19T04:18:13.450Z,99708.67
2023-01-19T04:19:17.696Z,99708.2
2023-01-19T04:20:21.910Z,99708.32
2023-01-19T04:21:26.166Z,99704.98
2023-01-19T04:22:30.363Z,99706.33
2023-01-19T04:23:35.633Z,99711.76
2023-01-19T04:24:39.862Z,99711.02
2023-01-19T04:25:44.276Z,99722.62
2023-01-19T04:26:48.504Z,99727.41
2023-01-19T04:27:52.714Z,99723.14
2023-01-19T04:28:56.937Z,99730.98
2023-01-19T04:30:01.148Z,99726.55
2023-01-19T04:31:05.481Z,99723.8
2023-01-19T04:32:09.877Z,99725.22
2023-01-19T04:33:14.108Z,99730.16
2023-01-19T04:34:18.387Z,99728.91
2023-01-19T04:35:22.621Z,99737.26
2023-01-19T04:36:26.870Z,99735.27
2023-01-19T04:37:31.082Z,99737.02
2023-01-19T04:38:35.370Z,99731.33
2023-01-19T04:39:39.852Z,99742.97
2023-01-19T04:40:44.078Z,99738.88
2023-01-19T04:41:48.350Z,99738.27
2023-01-19T04:42:52.594Z,99741.02
2023-01-19T04:43:56.858Z,99739
2023-01-19T04:45:01.124Z,99741.35
2023-01-19T04:46:05.537Z,99743.29
2023-01-19T04:47:09.826Z,99743.13
2023-01-19T04:48:14.080Z,99744.14
2023-01-19T04:49:18.397Z,99740.53
2023-01-19T04:50:22.637Z,99741.19
2023-01-19T04:51:26.844Z,99747.96
2023-01-19T04:52:31.064Z,99749.91
2023-01-19T04:53:35.340Z,99752.25
2023-01-19T04:54:39.778Z,99748.97
2023-01-19T04:55:44.013Z,99748.84
2023-01-19T04:56:48.213Z,99750.17
2023-01-19T04:57:52.459Z,99749.25
2023-01-19T04:58:56.690Z,99747.25
2023-01-19T05:00:00.906Z,99750.66
2023-01-19T05:01:05.260Z,99747.94
2023-01-19T05:02:09.717Z,99752.66
2023-01-19T05:03:14.213Z,99754.11
2023-01-19T05:04:19.736Z,99750.91
2023-01-19T05:05:24.125Z,99744.22
2023-01-19T05:06:28.354Z,99742.94
2023-01-19T05:07:32.592Z,99742.34
2023-01-19T05:08:36.804Z,99743.48
2023-01-19T05:09:41.055Z,99745.28
2023-01-19T05:10:45.275Z,99745.85
2023-01-19T05:11:49.649Z,99747.89
2023-01-19T05:12:53.872Z,99749.03
2023-01-19T05:13:58.114Z,99755.58
2023-01-19T05:15:02.342Z,99753.07
2023-01-19T05:16:06.666Z,99758.88
2023-01-19T05:17:10.953Z,99749.23
2023-01-19T05:18:15.223Z,99746.91
2023-01-19T05:19:19.505Z,99755.19
2023-01-19T05:20:23.702Z,99755.43
2023-01-19T05:21:27.934Z,99754.09
2023-01-19T05:22:32.132Z,99758.52
2023-01-19T05:23:36.338Z,99755.84
2023-01-19T05:24:40.646Z,99762.13
2023-01-19T05:25:45.000Z,99765.22
2023-01-19T05:26:49.279Z,99764.39
2023-01-19T05:27:53.505Z,99753.84
2023-01-19T05:28:57.900Z,99758.8
2023-01-19T05:30:02.129Z,99766.42
2023-01-19T05:31:06.682Z,99765.08
2023-01-19T05:32:11.112Z,99765.41
2023-01-19T05:33:15.309Z,99765.73
2023-01-19T05:34:19.548Z,99765.27
2023-01-19T05:35:36.693Z,99764.53
2023-01-19T05:36:40.961Z,99773.27
2023-01-19T05:37:45.256Z,99771.45
2023-01-19T05:38:49.499Z,99773.97
2023-01-19T05:39:53.747Z,99775.07
2023-01-19T05:40:58.030Z,99776.94
2023-01-19T05:42:02.292Z,99770.52
2023-01-19T05:43:06.666Z,99768.65
2023-01-19T05:44:10.931Z,99774.7
2023-01-19T05:45:15.221Z,99769.49
2023-01-19T05:46:19.518Z,99773.23
2023-01-19T05:47:24.008Z,99771.44
2023-01-19T05:48:28.213Z,99772.08
2023-01-19T05:49:32.533Z,99775.23
2023-01-19T05:50:36.746Z,99781.66
2023-01-19T05:51:41.019Z,99775.48
2023-01-19T05:52:45.247Z,99773.94
2023-01-19T05:53:49.490Z,99774.17
2023-01-19T05:54:53.741Z,99781.03
2023-01-19T05:56:00.202Z,99775.38
2023-01-19T05:57:04.448Z,99782.82
2023-01-19T05:58:08.703Z,99781.27
2023-01-19T05:59:12.926Z,99784.98
2023-01-19T06:00:17.144Z,99789.88
2023-01-19T06:01:21.540Z,99791.22
2023-01-19T06:02:26.025Z,99792.48
2023-01-19T06:03:30.421Z,99791.26
2023-01-19T06:04:34.752Z,99785.08
2023-01-19T06:05:38.983Z,99794.27
2023-01-19T06:06:43.235Z,99796.54
2023-01-19T06:07:47.480Z,99795.4
2023-01-19T06:08:51.736Z,99795.72
2023-01-19T06:09:55.992Z,99799.67
2023-01-19T06:11:00.212Z,99805
2023-01-19T06:12:06.945Z,99807.89
2023-01-19T06:13:11.180Z,99803.06
2023-01-19T06:14:15.480Z,99814.48
2023-01-19T06:15:19.698Z,99810.42
2023-01-19T06:16:23.992Z,99813.71
2023-01-19T06:17:28.663Z,99820.23
2023-01-19T06:18:32.907Z,99825.47
2023-01-19T06:19:37.142Z,99825.31
2023-01-19T06:20:41.375Z,99827.38
2023-01-19T06:21:45.692Z,99833.18
2023-01-19T06:22:49.902Z,99832.2
2023-01-19T06:23:54.137Z,99838.67
2023-01-19T06:24:58.419Z,99829.16
2023-01-19T06:26:02.663Z,99840.13
2023-01-19T06:27:06.900Z,99843.09
2023-01-19T06:28:11.182Z,99849.25
2023-01-19T06:29:15.402Z,99848.28
2023-01-19T06:30:19.610Z,99857.73
2023-01-19T06:31:24.009Z,99857.69
2023-01-19T06:32:28.360Z,99866.83
2023-01-19T06:33:32.569Z,99861.83
2023-01-19T06:34:36.863Z,99868.8
2023-01-19T06:35:41.297Z,99872.66
2023-01-19T06:36:45.676Z,99876.88
2023-01-19T06:37:49.963Z,99876.39
2023-01-19T06:38:54.224Z,99881.94
2023-01-19T06:39:58.427Z,99879.09
2023-01-19T06:41:02.676Z,99882.38
2023-01-19T06:42:06.933Z,99882.98
2023-01-19T06:43:11.146Z,99887.69
2023-01-19T06:44:15.491Z,99880.86
2023-01-19T06:45:19.747Z,99884.22
2023-01-19T06:46:24.007Z,99882.23
2023-01-19T06:47:28.231Z,99891.35
2023-01-19T06:48:32.549Z,99893.19
2023-01-19T06:49:36.780Z,99893.78
2023-01-19T06:50:41.043Z,99897.39
2023-01-19T06:51:45.272Z,99893.98
2023-01-19T06:52:49.539Z,99898.16
2023-01-19T06:53:53.860Z,99899.5
2023-01-19T06:54:58.099Z,99897.34
2023-01-19T06:56:02.623Z,99891.79
2023-01-19T06:57:08.550Z,99898.05
2023-01-19T06:58:12.816Z,99893.92
2023-01-19T06:59:17.088Z,99893.62
2023-01-19T07:00:21.324Z,99887.88
2023-01-19T07:01:25.794Z,99895.73
2023-01-19T07:02:30.846Z,99893.51
2023-01-19T07:03:35.588Z,99899.62
2023-01-19T07:04:39.865Z,99894.87
2023-01-19T07:05:44.130Z,99909.63
2023-01-19T07:06:48.385Z,99905.05
2023-01-19T07:07:52.601Z,99909.14
2023-01-19T07:08:57.010Z,99904.27
2023-01-19T07:10:01.298Z,99910.12
2023-01-19T07:11:30.053Z,99913.61
2023-01-19T07:12:37.767Z,99913.53
2023-01-19T07:13:42.000Z,99910.12
2023-01-19T07:14:46.294Z,99913.29
2023-01-19T07:15:50.615Z,99916.17
2023-01-19T07:16:54.967Z,99915.41
2023-01-19T07:17:59.301Z,99915.92
2023-01-19T07:19:03.513Z,99920.2
2023-01-19T07:20:07.737Z,99913.74
2023-01-19T07:21:12.033Z,99912.27
2023-01-19T07:22:16.288Z,99920.08
2023-01-19T07:23:20.526Z,99918.69
2023-01-19T07:24:24.777Z,99915.03
2023-01-19T07:25:28.984Z,99919.82
2023-01-19T07:26:33.253Z,99914.73
2023-01-19T07:27:37.673Z,99924.2
2023-01-19T07:28:41.918Z,99914.61
2023-01-19T07:29:46.140Z,99920.33
2023-01-19T07:30:50.563Z,99915.66
2023-01-19T07:31:55.044Z,99922.44
2023-01-19T07:33:00.439Z,99919.84
2023-01-19T07:34:05.340Z,99920.72
2023-01-19T07:35:09.551Z,99916.38
2023-01-19T07:36:13.847Z,99922.01
2023-01-19T07:37:18.123Z,99920.91
2023-01-19T07:38:22.370Z,99922.53
2023-01-19T07:39:26.603Z,99921.88
2023-01-19T07:40:30.864Z,99925.68
2023-01-19T07:41:35.089Z,99926.25
2023-01-19T07:42:39.362Z,99935.74
2023-01-19T07:43:43.591Z,99925.79
2023-01-19T07:44:48.033Z,99935.33
2023-01-19T07:45:52.329Z,99936.45
2023-01-19T07:46:56.590Z,99932.19
2023-01-19T07:48:00.834Z,99936.81
2023-01-19T07:49:05.167Z,99943.67
2023-01-19T07:50:09.403Z,99945.28
2023-01-19T07:51:15.853Z,99949.98
2023-01-19T07:52:20.111Z,99950.99
2023-01-19T07:53:24.374Z,99945.83
2023-01-19T07:54:28.598Z,99948.26
2023-01-19T07:55:32.841Z,99954.3
2023-01-19T07:56:37.073Z,99954.7
2023-01-19T07:57:41.353Z,99950.55
2023-01-19T07:58:45.603Z,99953.91
2023-01-19T07:59:49.883Z,99953.72
2023-01-19T08:00:54.347Z,99956.15
2023-01-19T08:01:59.744Z,99957.08
2023-01-19T08:03:05.136Z,99965.03
2023-01-19T08:04:09.671Z,99960.94
2023-01-19T08:05:14.099Z,99962.49
2023-01-19T08:06:18.403Z,99962.39
2023-01-19T08:07:22.751Z,99959.94
2023-01-19T08:08:27.050Z,99960.97
2023-01-19T08:09:31.334Z,99959.58
2023-01-19T08:10:37.793Z,99957.58
2023-01-19T08:11:43.064Z,99958.02
2023-01-19T08:12:47.565Z,99955.02
2023-01-19T08:13:51.793Z,99955.84
2023-01-19T08:14:56.091Z,99951.79
2023-01-19T08:16:00.435Z,99948.02
2023-01-19T08:17:04.669Z,99953.26
2023-01-19T08:18:08.972Z,99951.02
2023-01-19T08:19:13.197Z,99946.8
2023-01-19T08:20:17.406Z,99941.2
2023-01-19T08:21:21.654Z,99942.2
2023-01-19T08:22:25.894Z,99941.88
2023-01-19T08:23:30.102Z,99937.65
2023-01-19T08:24:34.359Z,99945.86
2023-01-19T08:25:38.601Z,99943.62
2023-01-19T08:26:42.837Z,99944.55
2023-01-19T08:27:47.315Z,99946.09
2023-01-19T08:28:51.549Z,99942.31
2023-01-19T08:29:55.851Z,99943.33
2023-01-19T08:31:19.627Z,99945.88
2023-01-19T08:32:28.213Z,99946.56
2023-01-19T08:33:32.583Z,99949.32
2023-01-19T08:34:36.813Z,99944.75
2023-01-19T08:35:44.127Z,99941.91
2023-01-19T08:36:48.369Z,99951.05
2023-01-19T08:37:52.588Z,99953.4
2023-01-19T08:38:56.820Z,99947.38
2023-01-19T08:40:01.065Z,99947.58
2023-01-19T08:41:05.310Z,99945.5
2023-01-19T08:42:09.850Z,99950.53
2023-01-19T08:43:14.059Z,99949.03
2023-01-19T08:44:18.292Z,99950.89
2023-01-19T08:45:22.543Z,99951.16
2023-01-19T08:46:26.855Z,99946.05
2023-01-19T08:47:31.387Z,99950.67
2023-01-19T08:48:35.692Z,99945.99
2023-01-19T08:49:42.929Z,99955.56
2023-01-19T08:50:47.197Z,99949.55
2023-01-19T08:51:51.465Z,99949.71
2023-01-19T08:52:55.704Z,99952.5
2023-01-19T08:54:00.014Z,99951.84
2023-01-19T08:55:04.363Z,99950.17
2023-01-19T08:56:08.574Z,99954.87
2023-01-19T08:57:12.832Z,99958.64
2023-01-19T08:58:17.097Z,99959.05
2023-01-19T08:59:21.343Z,99964.98
2023-01-19T09:00:25.591Z,99962.45
2023-01-19T09:01:30.098Z,99965.76
2023-01-19T09:02:34.787Z,99971.42
2023-01-19T09:03:39.271Z,99975.39
2023-01-19T09:04:43.525Z,99967.7
2023-01-19T09:05:47.761Z,99971.74
2023-01-19T09:06:52.005Z,99972.61
2023-01-19T09:07:56.226Z,99977.99
2023-01-19T09:09:00.581Z,99981.3
2023-01-19T09:10:05.176Z,99986.05
2023-01-19T09:11:09.389Z,99987.88
2023-01-19T09:12:13.648Z,99985.58
2023-01-19T09:13:17.899Z,99989.08
2023-01-19T09:14:22.194Z,99996.43
2023-01-19T09:15:26.577Z,99992.82
2023-01-19T09:16:30.801Z,99993.26
2023-01-19T09:17:35.044Z,99991.27
2023-01-19T09:18:39.297Z,99996.71
2023-01-19T09:19:43.538Z,99993.78
2023-01-19T09:20:47.752Z,100001.02
2023-01-19T09:21:52.020Z,99997.02
2023-01-19T09:22:58.509Z,99998.97
2023-01-19T09:24:02.773Z,99993.82
2023-01-19T09:25:07.004Z,100001.05
2023-01-19T09:26:11.305Z,100000.88
2023-01-19T09:27:15.666Z,99998.39
2023-01-19T09:28:20.002Z,100000.62
2023-01-19T09:29:24.322Z,99995.09
2023-01-19T09:30:28.597Z,100000.73
2023-01-19T09:31:33.013Z,100000.16
2023-01-19T09:32:37.327Z,99997.75
2023-01-19T09:33:41.576Z,99997.59
2023-01-19T09:34:45.825Z,99999.94
2023-01-19T09:35:50.065Z,99996.03
2023-01-19T09:36:54.313Z,99996.8
2023-01-19T09:37:58.986Z,99998.91
2023-01-19T09:39:03.898Z,100003.03
2023-01-19T09:40:08.314Z,99995.23
2023-01-19T09:41:15.136Z,99994.17
2023-01-19T09:42:19.363Z,99996.19
2023-01-19T09:43:23.589Z,99995.95
2023-01-19T09:44:27.833Z,99997.4
2023-01-19T09:45:32.072Z,99999.42
2023-01-19T09:46:36.574Z,99992.88
2023-01-19T09:47:40.915Z,99992.23
2023-01-19T09:48:45.129Z,99991.08
2023-01-19T09:49:49.390Z,99999.28
2023-01-19T09:50:53.668Z,99986.16
2023-01-19T09:51:57.949Z,99990.77
2023-01-19T09:53:03.020Z,99989.59
2023-01-19T09:54:07.464Z,99990.72
2023-01-19T09:55:11.813Z,99985.6
2023-01-19T09:56:18.413Z,99988.8
2023-01-19T09:57:22.691Z,99985.47
2023-01-19T09:58:26.910Z,99991.09
2023-01-19T09:59:31.179Z,99989.84
2023-01-19T10:00:35.512Z,99996.53
2023-01-19T10:01:39.838Z,99995.47
2023-01-19T10:02:44.430Z,99996.06
2023-01-19T10:03:48.758Z,99996.55
2023-01-19T10:04:53.016Z,99999.83
2023-01-19T10:05:57.248Z,100006.2
2023-01-19T10:07:01.478Z,100008.95
2023-01-19T10:08:05.732Z,100004.8
2023-01-19T10:09:09.991Z,100006.81
2023-01-19T10:10:14.293Z,100007.31
2023-01-19T10:11:18.675Z,100013.11
2023-01-19T10:12:22.937Z,100008.42
2023-01-19T10:13:27.188Z,100018.02
2023-01-19T10:14:31.807Z,100016.35
2023-01-19T10:15:36.070Z,100012.25
2023-01-19T10:16:40.746Z,100013.52
2023-01-19T10:17:44.981Z,100016.35
2023-01-19T10:18:49.255Z,100018.95
2023-01-19T10:19:53.627Z,100018.54
2023-01-19T10:20:58.137Z,100015.86
2023-01-19T10:22:02.931Z,100019.28
2023-01-19T10:23:07.229Z,100022.78
2023-01-19T10:24:11.535Z,100016.99
2023-01-19T10:25:15.837Z,100020.64
2023-01-19T10:26:20.247Z,100021.94
2023-01-19T10:27:24.598Z,100019.13
2023-01-19T10:28:30.516Z,100016.63
2023-01-19T10:29:34.783Z,100023.92
2023-01-19T10:30:39.124Z,100021
2023-01-19T10:31:43.627Z,100025.29
2023-01-19T10:32:48.261Z,100024.52
2023-01-19T10:33:52.541Z,100023.8
2023-01-19T10:34:56.829Z,100027.03
2023-01-19T10:36:01.185Z,100022.76
2023-01-19T10:37:05.460Z,100031.78
2023-01-19T10:38:09.742Z,100034.36
2023-01-19T10:39:14.045Z,100026.64
2023-01-19T10:40:18.368Z,100025.08
2023-01-19T10:41:22.826Z,100024.75
2023-01-19T10:42:27.177Z,100024.42
2023-01-19T10:43:31.594Z,100024.67
2023-01-19T10:44:35.998Z,100025.69
2023-01-19T10:45:40.387Z,100019.78
2023-01-19T10:46:44.856Z,100018.28
2023-01-19T10:47:49.137Z,100018.06
2023-01-19T10:48:53.636Z,100013.93
2023-01-19T10:49:58.050Z,100009.36
2023-01-19T10:51:05.448Z,100012.27
2023-01-19T10:52:09.883Z,100026.47
2023-01-19T10:53:14.178Z,100014.48
2023-01-19T10:54:18.756Z,100017.93
2023-01-19T10:55:23.071Z,100019.22
2023-01-19T10:56:27.377Z,100009.27
2023-01-19T10:57:31.804Z,100014.9
2023-01-19T10:58:36.194Z,100015.17
2023-01-19T10:59:40.522Z,100013.53
2023-01-19T11:00:44.912Z,100011.05
2023-01-19T11:01:49.736Z,100009.27
2023-01-19T11:02:54.660Z,100013.81
2023-01-19T11:03:59.133Z,100012.83
2023-01-19T11:05:03.536Z,100006.59
2023-01-19T11:06:07.791Z,100005.56
2023-01-19T11:07:12.077Z,100008.27
2023-01-19T11:08:16.317Z,100010.59
2023-01-19T11:09:20.939Z,100009.02
2023-01-19T11:10:25.291Z,100006.03
2023-01-19T11:11:29.559Z,99997.34
2023-01-19T11:12:36.071Z,100005.66
2023-01-19T11:13:40.323Z,100007.66
2023-01-19T11:14:44.704Z,100001.11
2023-01-19T11:15:48.958Z,100006.08
2023-01-19T11:16:53.235Z,100000.4
2023-01-19T11:17:57.676Z,100000.33
2023-01-19T11:19:02.028Z,99996.12
2023-01-19T11:20:06.328Z,99996.18
2023-01-19T11:21:10.611Z,100001.59
2023-01-19T11:22:14.830Z,100005.44
2023-01-19T11:23:19.196Z,99995.39
2023-01-19T11:24:23.472Z,99995.94
2023-01-19T11:25:27.711Z,99995.18
2023-01-19T11:26:32.015Z,99991.18
2023-01-19T11:27:36.246Z,99999.22
2023-01-19T11:28:40.496Z,99997.03
2023-01-19T11:29:48.185Z,100000.34
2023-01-19T11:30:52.500Z,99991.72
2023-01-19T11:31:56.873Z,99993.7
2023-01-19T11:33:02.135Z,99990.17
2023-01-19T11:34:06.848Z,99988.84
2023-01-19T11:35:11.066Z,99990.09
2023-01-19T11:36:15.309Z,99990.5
2023-01-19T11:37:19.558Z,99989.75
2023-01-19T11:38:23.862Z,99991.38
2023-01-19T11:39:28.128Z,99991.44
2023-01-19T11:40:32.504Z,99991.6
2023-01-19T11:41:36.760Z,99998.77
2023-01-19T11:42:40.977Z,99999.94
2023-01-19T11:43:50.416Z,100004.75
2023-01-19T11:44:54.689Z,100001.56
2023-01-19T11:45:59.063Z,99997.02
2023-01-19T11:47:03.526Z,100000.92
2023-01-19T11:48:07.769Z,100005.63
2023-01-19T11:49:12.120Z,100002.09
2023-01-19T11:50:16.503Z,99995.34
2023-01-19T11:51:20.754Z,99998.3
2023-01-19T11:52:24.995Z,99990.1
2023-01-19T11:53:29.313Z,99992.29
2023-01-19T11:54:33.559Z,99991.8
2023-01-19T11:55:37.771Z,99997.77
2023-01-19T11:56:42.012Z,99993.18
2023-01-19T11:57:46.281Z,99987.36
2023-01-19T11:58:50.532Z,99984.34
2023-01-19T11:59:54.757Z,99991.33
2023-01-19T12:00:59.095Z,99991.14
2023-01-19T12:02:03.525Z,99984.71
2023-01-19T12:03:07.953Z,99978.37
2023-01-19T12:04:12.359Z,99979.17
2023-01-19T12:05:16.591Z,99985.63
2023-01-19T12:06:20.828Z,99985.46
2023-01-19T12:07:25.035Z,99983.58
2023-01-19T12:08:29.260Z,99983.34
2023-01-19T12:09:33.612Z,99982.77
2023-01-19T12:10:40.120Z,99986.13
2023-01-19T12:11:44.387Z,99982.3
2023-01-19T12:12:48.628Z,99989.69
2023-01-19T12:13:54.763Z,99986.68
2023-01-19T12:14:59.042Z,99993.13
2023-01-19T12:16:03.288Z,99993.33
2023-01-19T12:17:07.502Z,99988.13
2023-01-19T12:18:11.734Z,99989.83
2023-01-19T12:19:16.004Z,99991.77
2023-01-19T12:20:20.308Z,99988.84
2023-01-19T12:21:24.579Z,99989.44
2023-01-19T12:22:28.933Z,99992.28
2023-01-19T12:23:33.161Z,99993
2023-01-19T12:24:37.513Z,99989.55
2023-01-19T12:25:42.053Z,99988.89
2023-01-19T12:26:46.247Z,99992.25
2023-01-19T12:27:50.501Z,99988.42
2023-01-19T12:28:54.754Z,99991.38
2023-01-19T12:29:59.019Z,99995.06
2023-01-19T12:31:05.900Z,99993.4
2023-01-19T12:32:10.264Z,99988.53
2023-01-19T12:33:14.512Z,99990.06
2023-01-19T12:34:18.745Z,99987.55
2023-01-19T12:35:22.962Z,99994.77
2023-01-19T12:36:27.169Z,99994.43
2023-01-19T12:37:31.536Z,99993.7